Time;durP1;ratioP1;P1;durP2;ratioP2;P2;SDS_P1;SDS_P2;PMS_P1;PMS_P2;Temp;Humidity;BMP_temperature;BMP_pressure;BME280_temperature;BME280_humidity;BME280_pressure;Samples;Min_cycle;Max_cycle;Signal;HPM_P1;HPM_P2
2022/01/02 00:00:13;;;;;;;18.25;9.40;;;;;;;;;;5069596;28;20046;-83
2022/01/02 00:02:41;;;;;;;15.40;8.70;;;;;;;;;;5052917;28;20052;-82
2022/01/02 00:05:08;;;;;;;12.98;8.68;;;;;;;;;;5087290;28;20055;-85
2022/01/02 00:07:35;;;;;;;15.32;8.18;;;;;;;;;;5069108;28;20054;-85
2022/01/02 00:10:05;;;;;;;17.27;9.07;;;;;;;;;;5056834;28;20074;-83
2022/01/02 00:12:35;;;;;;;13.60;8.88;;;;;;;;;;5063111;28;20056;-85
2022/01/02 00:15:04;;;;;;;19.33;9.63;;;;;;;;;;5063920;28;20454;-85
2022/01/02 00:17:30;;;;;;;19.48;9.75;;;;;;;;;;5055337;28;20048;-84
2022/01/02 00:19:58;;;;;;;15.10;8.27;;;;;;;;;;5067852;28;20036;-83
2022/01/02 00:22:32;;;;;;;17.63;8.93;;;;;;;;;;5054335;28;20066;-85
2022/01/02 00:24:58;;;;;;;16.70;8.60;;;;;;;;;;5051308;28;20128;-83
2022/01/02 00:27:25;;;;;;;18.42;9.65;;;;;;;;;;5050622;28;20052;-83
2022/01/02 00:29:52;;;;;;;19.33;8.75;;;;;;;;;;5060720;28;20090;-83
2022/01/02 00:32:19;;;;;;;21.50;10.40;;;;;;;;;;5068383;28;20488;-83
2022/01/02 00:34:50;;;;;;;19.40;9.40;;;;;;;;;;5068893;28;20058;-83
2022/01/02 00:37:16;;;;;;;18.58;9.27;;;;;;;;;;5065495;28;20507;-82
2022/01/02 00:39:43;;;;;;;16.20;9.68;;;;;;;;;;5054901;28;20036;-82
2022/01/02 00:42:09;;;;;;;20.27;9.95;;;;;;;;;;5069645;28;20044;-81
2022/01/02 00:44:48;;;;;;;16.80;9.65;;;;;;;;;;5070104;28;20044;-82
2022/01/02 00:47:33;;;;;;;21.70;9.23;;;;;;;;;;5071900;28;20131;-82
2022/01/02 00:50:10;;;;;;;17.23;9.32;;;;;;;;;;5065680;28;20598;-82
2022/01/02 00:52:38;;;;;;;22.45;10.02;;;;;;;;;;5068027;28;20051;-83
2022/01/02 00:55:06;;;;;;;18.95;9.80;;;;;;;;;;5063385;28;20472;-83
2022/01/02 00:57:37;;;;;;;19.10;9.43;;;;;;;;;;5054659;28;20079;-83
2022/01/02 01:00:16;;;;;;;21.58;10.48;;;;;;;;;;5054890;28;20089;-82
2022/01/02 01:02:47;;;;;;;22.08;10.13;;;;;;;;;;5066684;28;20044;-83
2022/01/02 01:05:17;;;;;;;21.13;10.77;;;;;;;;;;5088476;28;20378;-82
2022/01/02 01:07:43;;;;;;;19.85;10.35;;;;;;;;;;5070520;28;20048;-81
2022/01/02 01:10:11;;;;;;;22.88;10.57;;;;;;;;;;5066388;28;20098;-82
2022/01/02 01:12:37;;;;;;;25.10;10.75;;;;;;;;;;5070370;28;20126;-88
2022/01/02 01:15:05;;;;;;;24.13;11.73;;;;;;;;;;5053448;28;20048;-79
2022/01/02 02:11:09;;;;;;;26.42;14.65;;;;;;;;;;5098044;28;20076;-79
2022/01/02 02:13:38;;;;;;;40.10;17.83;;;;;;;;;;5088256;28;20506;-78
2022/01/02 02:16:05;;;;;;;43.63;17.42;;;;;;;;;;5091585;28;20559;-80
2022/01/02 02:18:31;;;;;;;46.10;19.25;;;;;;;;;;5106858;28;20394;-81
2022/01/02 02:20:57;;;;;;;40.08;18.55;;;;;;;;;;5075337;28;20051;-82
2022/01/02 02:23:23;;;;;;;40.70;19.73;;;;;;;;;;5091507;28;20050;-82
2022/01/02 02:25:49;;;;;;;31.75;18.73;;;;;;;;;;5094515;28;20135;-81
2022/01/02 02:28:17;;;;;;;39.33;18.83;;;;;;;;;;5086195;28;20040;-81
2022/01/02 02:30:45;;;;;;;45.92;20.02;;;;;;;;;;5093568;28;20455;-81
2022/01/02 02:33:11;;;;;;;37.72;18.85;;;;;;;;;;5086069;28;20035;-81
2022/01/02 02:35:38;;;;;;;40.70;19.40;;;;;;;;;;5078866;28;20055;-82
2022/01/02 02:38:05;;;;;;;43.70;19.58;;;;;;;;;;5076548;28;20090;-81
2022/01/02 02:40:32;;;;;;;35.92;18.13;;;;;;;;;;5082221;28;20047;-82
2022/01/02 02:43:06;;;;;;;43.17;19.52;;;;;;;;;;5107409;28;20051;-81
2022/01/02 02:49:00;;;;;;;39.38;19.30;;;;;;;;;;5092402;27;20046;-81
2022/01/02 02:51:25;;;;;;;42.22;19.20;;;;;;;;;;5088297;27;20050;-81
2022/01/02 02:53:52;;;;;;;43.08;21.02;;;;;;;;;;5097289;27;20043;-81
2022/01/02 02:58:45;;;;;;;42.50;20.25;;;;;;;;;;5079002;27;20407;-81
2022/01/02 03:01:13;;;;;;;35.78;19.58;;;;;;;;;;5102330;27;20051;-81
2022/01/02 03:03:40;;;;;;;42.88;20.63;;;;;;;;;;5087641;27;20040;-82
2022/01/02 03:06:06;;;;;;;42.72;21.92;;;;;;;;;;5100621;27;20043;-81
2022/01/02 03:08:33;;;;;;;52.13;22.23;;;;;;;;;;5098642;28;20557;-84
2022/01/02 03:10:59;;;;;;;42.85;22.25;;;;;;;;;;5071994;28;20110;-81
2022/01/02 03:13:25;;;;;;;55.22;23.17;;;;;;;;;;5076266;28;20044;-81
2022/01/02 03:15:52;;;;;;;48.17;22.83;;;;;;;;;;5087495;27;20107;-81
2022/01/02 03:18:18;;;;;;;40.05;20.63;;;;;;;;;;5078656;28;20051;-81
2022/01/02 03:20:44;;;;;;;45.90;21.40;;;;;;;;;;5078067;28;20577;-80
2022/01/02 03:23:10;;;;;;;49.95;22.05;;;;;;;;;;5087503;27;20101;-80
2022/01/02 03:25:36;;;;;;;49.92;23.52;;;;;;;;;;5090779;28;20066;-81
2022/01/02 03:28:02;;;;;;;51.70;21.60;;;;;;;;;;5108071;27;20048;-82
2022/01/02 03:30:28;;;;;;;44.58;20.30;;;;;;;;;;5094978;28;20424;-80
2022/01/02 03:32:54;;;;;;;47.80;20.33;;;;;;;;;;5110068;28;20399;-81
2022/01/02 03:35:20;;;;;;;42.50;19.80;;;;;;;;;;5080776;28;20050;-81
2022/01/02 03:37:46;;;;;;;41.42;19.67;;;;;;;;;;5086841;28;20096;-81
2022/01/02 03:40:13;;;;;;;45.33;22.00;;;;;;;;;;5077168;28;20047;-80
2022/01/02 03:42:39;;;;;;;45.70;21.55;;;;;;;;;;5111031;28;20036;-80
2022/01/02 03:45:06;;;;;;;40.75;21.10;;;;;;;;;;5112814;27;20502;-80
2022/01/02 03:47:32;;;;;;;40.33;18.67;;;;;;;;;;5078399;28;20139;-80
2022/01/02 03:49:58;;;;;;;38.60;18.25;;;;;;;;;;5112626;27;20491;-81
2022/01/02 03:52:27;;;;;;;28.67;16.17;;;;;;;;;;5076666;28;20425;-81
2022/01/02 03:54:53;;;;;;;41.03;18.85;;;;;;;;;;5080544;27;20519;-81
2022/01/02 03:57:19;;;;;;;52.85;20.67;;;;;;;;;;5097003;28;20036;-81
2022/01/02 03:59:46;;;;;;;38.08;18.80;;;;;;;;;;5103600;27;20343;-80
2022/01/02 04:02:12;;;;;;;33.00;18.30;;;;;;;;;;5080461;28;20149;-79
2022/01/02 04:04:38;;;;;;;48.22;19.27;;;;;;;;;;5082444;27;20086;-86
2022/01/02 04:07:05;;;;;;;44.08;20.05;;;;;;;;;;5077010;28;20058;-82
2022/01/02 04:09:31;;;;;;;43.72;19.15;;;;;;;;;;5083614;27;20056;-81
2022/01/02 04:11:57;;;;;;;40.85;19.35;;;;;;;;;;5089033;27;20059;-80
2022/01/02 04:14:24;;;;;;;44.17;18.50;;;;;;;;;;5075971;28;20083;-81
2022/01/02 04:16:50;;;;;;;43.53;19.15;;;;;;;;;;5095901;27;20526;-78
2022/01/02 04:19:16;;;;;;;38.67;17.85;;;;;;;;;;5092349;28;20054;-81
2022/01/02 04:21:42;;;;;;;48.65;20.17;;;;;;;;;;5099900;27;20051;-81
2022/01/02 04:24:08;;;;;;;49.42;20.80;;;;;;;;;;5077683;28;20051;-83
2022/01/02 04:26:34;;;;;;;42.63;19.20;;;;;;;;;;5083400;27;20108;-82
2022/01/02 04:29:00;;;;;;;42.55;19.73;;;;;;;;;;5092325;28;20086;-82
2022/01/02 04:31:26;;;;;;;51.00;19.63;;;;;;;;;;5095124;28;20121;-81
2022/01/02 04:33:52;;;;;;;40.67;18.10;;;;;;;;;;5074232;27;20144;-81
2022/01/02 04:36:19;;;;;;;33.80;17.67;;;;;;;;;;5079344;27;20056;-82
2022/01/02 04:38:45;;;;;;;52.53;20.95;;;;;;;;;;5078005;27;20036;-80
2022/01/02 04:41:12;;;;;;;47.00;20.05;;;;;;;;;;5104887;27;20064;-82
2022/01/02 04:43:38;;;;;;;37.88;15.85;;;;;;;;;;5102275;27;20047;-80
2022/01/02 04:46:05;;;;;;;40.78;18.77;;;;;;;;;;5094939;27;20051;-82
2022/01/02 04:48:31;;;;;;;37.58;17.60;;;;;;;;;;5078441;28;20047;-81
2022/01/02 04:50:58;;;;;;;45.55;20.65;;;;;;;;;;5090961;28;20513;-81
2022/01/02 04:53:24;;;;;;;48.80;20.67;;;;;;;;;;5080187;28;20052;-81
2022/01/02 04:55:50;;;;;;;46.50;17.98;;;;;;;;;;5113529;27;20047;-82
2022/01/02 04:58:16;;;;;;;33.50;17.10;;;;;;;;;;5079596;27;20087;-81
2022/01/02 05:00:42;;;;;;;40.88;19.55;;;;;;;;;;5117649;27;20055;-80
2022/01/02 05:03:08;;;;;;;36.88;16.33;;;;;;;;;;5103821;27;20072;-82
2022/01/02 05:05:34;;;;;;;30.73;16.25;;;;;;;;;;5093073;28;20054;-81
2022/01/02 05:08:00;;;;;;;40.00;17.00;;;;;;;;;;5081608;28;20051;-80
2022/01/02 05:10:27;;;;;;;44.97;17.13;;;;;;;;;;5093727;28;20051;-82
2022/01/02 05:12:53;;;;;;;37.60;15.60;;;;;;;;;;5094907;27;20427;-81
2022/01/02 05:15:19;;;;;;;40.53;15.70;;;;;;;;;;5074763;28;20051;-81
2022/01/02 05:17:45;;;;;;;36.15;14.27;;;;;;;;;;5093157;28;20047;-82
2022/01/02 05:20:11;;;;;;;39.47;16.85;;;;;;;;;;5093029;28;20040;-80
2022/01/02 05:22:38;;;;;;;36.42;14.35;;;;;;;;;;5098527;28;20047;-80
2022/01/02 05:25:04;;;;;;;37.60;14.60;;;;;;;;;;5089779;28;20442;-81
2022/01/02 05:27:30;;;;;;;47.47;16.35;;;;;;;;;;5091995;28;20119;-83
2022/01/02 05:29:57;;;;;;;37.85;14.65;;;;;;;;;;5116063;27;20043;-81
2022/01/02 05:32:23;;;;;;;35.05;14.23;;;;;;;;;;5097756;28;20134;-81
2022/01/02 05:34:49;;;;;;;35.67;13.23;;;;;;;;;;5092198;28;20040;-81
2022/01/02 05:37:16;;;;;;;32.47;12.18;;;;;;;;;;5081081;28;20447;-81
2022/01/02 05:39:42;;;;;;;40.42;13.00;;;;;;;;;;5096075;28;20468;-81
2022/01/02 05:42:08;;;;;;;35.15;12.32;;;;;;;;;;5079180;28;20043;-81
2022/01/02 05:44:35;;;;;;;31.80;11.77;;;;;;;;;;5077151;28;20075;-81
2022/01/02 05:47:01;;;;;;;30.88;11.65;;;;;;;;;;5079906;28;20378;-82
2022/01/02 05:49:27;;;;;;;36.55;12.00;;;;;;;;;;5097816;28;20046;-79
2022/01/02 05:51:53;;;;;;;35.55;10.55;;;;;;;;;;5082372;28;20039;-81
2022/01/02 05:54:19;;;;;;;30.90;12.52;;;;;;;;;;5097601;28;20115;-81
2022/01/02 05:56:45;;;;;;;34.35;11.32;;;;;;;;;;5090137;28;20039;-81
2022/01/02 05:59:11;;;;;;;28.73;11.20;;;;;;;;;;5076025;28;20039;-81
2022/01/02 06:01:37;;;;;;;29.85;11.63;;;;;;;;;;5095229;28;20573;-81
2022/01/02 06:04:03;;;;;;;32.78;11.25;;;;;;;;;;5091390;28;20309;-83
2022/01/02 06:06:29;;;;;;;34.63;12.35;;;;;;;;;;5057907;28;20044;-81
2022/01/02 06:08:56;;;;;;;34.70;11.20;;;;;;;;;;5085642;28;20039;-81
2022/01/02 06:11:22;;;;;;;28.40;11.20;;;;;;;;;;5107091;28;20135;-81
2022/01/02 06:13:48;;;;;;;30.83;11.48;;;;;;;;;;5080468;28;20063;-82
2022/01/02 06:16:14;;;;;;;31.80;11.35;;;;;;;;;;5085977;28;20139;-81
2022/01/02 06:18:40;;;;;;;24.52;10.52;;;;;;;;;;5091129;28;20053;-81
2022/01/02 06:21:06;;;;;;;31.27;10.45;;;;;;;;;;5092730;27;20044;-81
2022/01/02 06:23:32;;;;;;;32.78;10.60;;;;;;;;;;5078854;27;20051;-81
2022/01/02 06:25:58;;;;;;;26.10;10.60;;;;;;;;;;5080620;28;20531;-81
2022/01/02 06:28:24;;;;;;;42.35;13.60;;;;;;;;;;5112280;27;20413;-81
2022/01/02 06:30:50;;;;;;;29.60;11.30;;;;;;;;;;5090339;28;20461;-81
2022/01/02 06:33:16;;;;;;;29.45;10.23;;;;;;;;;;5091721;28;20052;-81
2022/01/02 06:35:43;;;;;;;23.85;10.18;;;;;;;;;;5092816;28;20050;-81
2022/01/02 06:38:12;;;;;;;31.23;10.82;;;;;;;;;;5074798;27;20055;-81
2022/01/02 06:40:38;;;;;;;29.38;9.82;;;;;;;;;;5100599;27;20092;-82
2022/01/02 06:43:04;;;;;;;29.02;10.07;;;;;;;;;;5114563;27;20047;-81
2022/01/02 06:45:30;;;;;;;22.85;8.90;;;;;;;;;;5082676;27;20043;-81
2022/01/02 06:47:56;;;;;;;21.98;9.05;;;;;;;;;;5084780;27;20448;-82
2022/01/02 06:50:22;;;;;;;26.52;8.82;;;;;;;;;;5095061;28;20470;-81
2022/01/02 06:52:48;;;;;;;25.00;9.52;;;;;;;;;;5121295;27;20051;-83
2022/01/02 06:55:14;;;;;;;22.83;9.23;;;;;;;;;;5088560;28;20142;-81
2022/01/02 06:57:41;;;;;;;20.75;8.85;;;;;;;;;;5094031;27;20044;-81
2022/01/02 07:00:07;;;;;;;22.27;9.20;;;;;;;;;;5096408;27;20089;-81
2022/01/02 07:02:33;;;;;;;24.40;9.18;;;;;;;;;;5088614;27;20047;-81
2022/01/02 07:05:00;;;;;;;22.33;8.05;;;;;;;;;;5095052;27;20046;-82
2022/01/02 07:07:26;;;;;;;22.00;7.80;;;;;;;;;;5096043;28;20056;-81
2022/01/02 07:09:52;;;;;;;18.98;7.80;;;;;;;;;;5096380;27;20057;-80
2022/01/02 07:12:18;;;;;;;23.15;7.40;;;;;;;;;;5102531;27;20118;-80
2022/01/02 07:14:44;;;;;;;14.80;6.18;;;;;;;;;;5079013;27;20051;-81
2022/01/02 07:17:10;;;;;;;23.02;6.88;;;;;;;;;;5072974;27;20047;-80
2022/01/02 07:19:36;;;;;;;19.17;6.20;;;;;;;;;;5085962;28;20137;-80
2022/01/02 07:22:02;;;;;;;15.18;6.25;;;;;;;;;;5094195;28;20039;-79
2022/01/02 07:24:28;;;;;;;19.23;5.97;;;;;;;;;;5096267;28;20448;-78
2022/01/02 07:26:54;;;;;;;18.50;6.22;;;;;;;;;;5091224;28;20044;-84
2022/01/02 07:29:21;;;;;;;14.80;5.78;;;;;;;;;;5091261;28;20055;-82
2022/01/02 07:31:47;;;;;;;15.40;5.70;;;;;;;;;;5093310;27;20501;-83
2022/01/02 07:34:13;;;;;;;15.05;5.95;;;;;;;;;;5091506;28;20035;-79
2022/01/02 07:36:43;;;;;;;16.65;6.57;;;;;;;;;;5077684;28;20039;-79
2022/01/02 07:39:09;;;;;;;21.60;13.30;;;;;;;;;;5086629;28;20142;-82
2022/01/02 07:41:35;;;;;;;16.75;6.22;;;;;;;;;;5073852;28;20487;-82
2022/01/02 07:44:03;;;;;;;15.70;5.82;;;;;;;;;;5111990;27;20563;-79
2022/01/02 07:46:30;;;;;;;13.07;5.22;;;;;;;;;;5091108;28;20919;-80
2022/01/02 07:48:57;;;;;;;14.27;5.68;;;;;;;;;;5074601;28;20047;-80
2022/01/02 07:51:23;;;;;;;17.98;5.50;;;;;;;;;;5071095;28;20490;-80
2022/01/02 07:53:49;;;;;;;11.70;5.70;;;;;;;;;;5074480;28;20093;-80
2022/01/02 07:56:15;;;;;;;18.95;5.65;;;;;;;;;;5073361;27;20051;-80
2022/01/02 07:58:42;;;;;;;15.68;5.72;;;;;;;;;;5103677;27;20040;-80
2022/01/02 08:01:08;;;;;;;11.23;5.85;;;;;;;;;;5072907;28;20403;-80
2022/01/02 08:03:34;;;;;;;15.32;6.00;;;;;;;;;;5075958;28;20135;-78
2022/01/02 08:06:00;;;;;;;16.88;6.88;;;;;;;;;;5091904;28;20054;-79
2022/01/02 08:08:26;;;;;;;14.18;6.43;;;;;;;;;;5074726;28;20506;-81
2022/01/02 08:10:52;;;;;;;18.48;6.43;;;;;;;;;;5089175;28;20051;-78
2022/01/02 08:13:18;;;;;;;23.83;7.75;;;;;;;;;;5092611;27;20062;-84
2022/01/02 08:15:46;;;;;;;18.13;7.78;;;;;;;;;;5090677;27;20051;-84
2022/01/02 08:18:13;;;;;;;21.77;7.55;;;;;;;;;;5076033;28;20051;-81
2022/01/02 08:20:45;;;;;;;17.60;7.22;;;;;;;;;;5092961;27;20043;-80
2022/01/02 08:23:12;;;;;;;17.48;7.80;;;;;;;;;;5090608;28;20051;-89
2022/01/02 08:25:38;;;;;;;26.02;7.35;;;;;;;;;;5073211;28;20435;-79
2022/01/02 08:28:05;;;;;;;19.63;7.32;;;;;;;;;;5075472;28;20470;-85
2022/01/02 08:30:31;;;;;;;14.82;7.13;;;;;;;;;;5112148;27;20123;-84
2022/01/02 08:32:57;;;;;;;13.68;6.65;;;;;;;;;;5091703;28;20075;-84
2022/01/02 08:35:23;;;;;;;24.70;7.65;;;;;;;;;;5075742;28;20036;-84
2022/01/02 08:37:49;;;;;;;15.63;8.18;;;;;;;;;;5088606;28;20039;-79
2022/01/02 08:40:15;;;;;;;13.02;8.55;;;;;;;;;;5090568;27;20063;-81
2022/01/02 08:42:41;;;;;;;18.20;8.35;;;;;;;;;;5090892;28;20040;-77
2022/01/02 08:45:07;;;;;;;16.50;8.80;;;;;;;;;;5074509;27;20478;-81
2022/01/02 08:47:33;;;;;;;16.73;8.73;;;;;;;;;;5089588;28;20166;-81
2022/01/02 08:50:00;;;;;;;20.17;8.77;;;;;;;;;;5072576;28;20058;-82
2022/01/02 08:52:26;;;;;;;14.60;7.80;;;;;;;;;;5090296;28;20043;-81
2022/01/02 08:54:52;;;;;;;14.50;7.05;;;;;;;;;;5091870;28;20123;-82
2022/01/02 08:57:18;;;;;;;9.05;6.35;;;;;;;;;;5073797;28;20043;-81
2022/01/02 08:59:44;;;;;;;12.60;7.70;;;;;;;;;;5091899;28;20051;-81
2022/01/02 09:02:10;;;;;;;15.93;7.93;;;;;;;;;;5091250;28;20379;-83
2022/01/02 09:04:36;;;;;;;18.05;9.38;;;;;;;;;;5073810;28;20051;-81
2022/01/02 09:07:03;;;;;;;17.02;9.75;;;;;;;;;;5074735;28;20048;-81
2022/01/02 09:09:29;;;;;;;17.10;11.20;;;;;;;;;;5089766;28;20560;-81
2022/01/02 09:11:55;;;;;;;22.48;11.77;;;;;;;;;;5091634;28;20397;-81
2022/01/02 09:14:21;;;;;;;21.88;10.82;;;;;;;;;;5072168;28;21579;-78
2022/01/02 09:16:47;;;;;;;21.05;11.10;;;;;;;;;;5088459;28;20130;-81
2022/01/02 09:19:14;;;;;;;24.48;11.60;;;;;;;;;;5071800;28;20048;-80
2022/01/02 09:21:40;;;;;;;26.05;11.18;;;;;;;;;;5074033;28;20040;-81
2022/01/02 09:24:06;;;;;;;21.92;9.65;;;;;;;;;;5107221;28;20398;-81
2022/01/02 09:26:32;;;;;;;16.23;9.50;;;;;;;;;;5070697;28;20250;-81
2022/01/02 09:28:58;;;;;;;19.63;9.90;;;;;;;;;;5070224;28;20120;-81
2022/01/02 09:31:25;;;;;;;17.75;10.57;;;;;;;;;;5072230;28;20061;-81
2022/01/02 09:33:51;;;;;;;18.65;10.15;;;;;;;;;;5106902;28;20031;-81
2022/01/02 09:36:18;;;;;;;23.10;11.40;;;;;;;;;;5088303;28;20047;-82
2022/01/02 09:38:44;;;;;;;23.13;11.98;;;;;;;;;;5088946;28;20391;-81
2022/01/02 09:41:10;;;;;;;20.65;11.00;;;;;;;;;;5072767;28;20040;-81
2022/01/02 09:43:36;;;;;;;15.35;10.23;;;;;;;;;;5087576;28;20174;-81
2022/01/02 09:46:03;;;;;;;17.27;10.55;;;;;;;;;;5090004;28;20083;-81
2022/01/02 09:48:30;;;;;;;21.98;12.10;;;;;;;;;;5088628;28;20059;-80
2022/01/02 09:50:57;;;;;;;21.05;12.90;;;;;;;;;;5088999;28;20359;-81
2022/01/02 09:53:23;;;;;;;22.23;11.93;;;;;;;;;;5088186;28;20391;-82
2022/01/02 09:55:49;;;;;;;25.23;14.18;;;;;;;;;;5072150;28;20126;-81
2022/01/02 09:58:16;;;;;;;20.27;11.35;;;;;;;;;;5074598;28;20191;-83
2022/01/02 10:00:44;;;;;;;21.73;12.25;;;;;;;;;;5088588;27;20075;-80
2022/01/02 10:03:11;;;;;;;18.92;10.48;;;;;;;;;;5092569;28;20039;-80
2022/01/02 10:05:56;;;;;;;23.58;12.65;;;;;;;;;;5093835;28;20044;-80
2022/01/02 10:08:25;;;;;;;21.70;11.10;;;;;;;;;;5094376;28;20036;-81
2022/01/02 10:11:07;;;;;;;19.77;10.75;;;;;;;;;;5092150;28;20087;-81
2022/01/02 10:14:02;;;;;;;27.48;13.45;;;;;;;;;;5093715;27;20097;-81
2022/01/02 10:16:34;;;;;;;18.25;11.60;;;;;;;;;;5074319;28;20094;-81
2022/01/02 10:19:19;;;;;;;19.42;11.73;;;;;;;;;;5076541;28;20051;-82
2022/01/02 10:21:52;;;;;;;22.15;10.88;;;;;;;;;;5091658;28;20142;-79
2022/01/02 10:24:21;;;;;;;17.83;11.70;;;;;;;;;;5092334;28;20101;-82
2022/01/02 10:27:06;;;;;;;19.75;11.25;;;;;;;;;;5076059;28;20051;-82
2022/01/02 10:29:40;;;;;;;18.15;9.48;;;;;;;;;;5093988;27;20048;-82
2022/01/02 10:32:25;;;;;;;18.58;10.93;;;;;;;;;;5077585;28;20080;-81
2022/01/02 10:34:51;;;;;;;20.40;9.85;;;;;;;;;;5075584;28;20050;-81
2022/01/02 10:37:24;;;;;;;26.67;10.88;;;;;;;;;;5092426;28;20043;-85
2022/01/02 10:39:51;;;;;;;26.65;9.68;;;;;;;;;;5112027;28;20047;-81
2022/01/02 10:42:17;;;;;;;19.52;9.35;;;;;;;;;;5091244;28;20044;-81
2022/01/02 10:44:44;;;;;;;16.90;8.38;;;;;;;;;;5092654;28;20040;-81
2022/01/02 10:47:14;;;;;;;21.92;7.85;;;;;;;;;;5109407;28;20111;-81
2022/01/02 10:50:01;;;;;;;24.58;8.32;;;;;;;;;;5092374;28;20188;-81
2022/01/02 10:52:28;;;;;;;24.20;8.15;;;;;;;;;;5092668;28;20097;-81
2022/01/02 10:54:56;;;;;;;17.52;7.90;;;;;;;;;;5093710;28;20046;-82
2022/01/02 10:57:22;;;;;;;15.80;7.78;;;;;;;;;;5090328;28;20047;-80
2022/01/02 10:59:48;;;;;;;21.83;7.55;;;;;;;;;;5093193;28;20047;-80
2022/01/02 11:02:15;;;;;;;20.42;6.97;;;;;;;;;;5093734;28;20055;-79
2022/01/02 11:04:49;;;;;;;19.08;6.53;;;;;;;;;;5075522;27;20047;-79
2022/01/02 11:07:22;;;;;;;18.23;6.22;;;;;;;;;;5076860;28;20208;-80
2022/01/02 11:09:57;;;;;;;17.45;6.55;;;;;;;;;;5093579;27;20058;-80
2022/01/02 11:12:24;;;;;;;18.63;6.40;;;;;;;;;;5092346;28;20047;-80
2022/01/02 11:14:50;;;;;;;22.23;6.13;;;;;;;;;;5088735;28;20071;-80
2022/01/02 11:17:17;;;;;;;15.57;6.65;;;;;;;;;;5092236;28;20459;-80
2022/01/02 11:19:43;;;;;;;22.95;7.93;;;;;;;;;;5092003;28;20052;-80
2022/01/02 11:22:13;;;;;;;15.93;6.07;;;;;;;;;;5111959;27;20066;-80
2022/01/02 11:24:45;;;;;;;14.85;5.90;;;;;;;;;;5091555;28;20044;-80
2022/01/02 11:27:26;;;;;;;20.27;7.43;;;;;;;;;;5090965;28;20050;-79
2022/01/02 11:29:52;;;;;;;14.82;6.15;;;;;;;;;;5094050;28;20043;-80
2022/01/02 11:32:23;;;;;;;15.45;5.40;;;;;;;;;;5092848;27;20108;-81
2022/01/02 11:34:49;;;;;;;20.02;6.32;;;;;;;;;;5092536;28;20490;-80
2022/01/02 11:37:20;;;;;;;18.88;6.80;;;;;;;;;;5108118;28;20047;-80
2022/01/02 11:39:56;;;;;;;18.52;6.07;;;;;;;;;;5109322;28;20122;-82
2022/01/02 11:42:42;;;;;;;20.10;5.88;;;;;;;;;;5074550;27;20043;-79
2022/01/02 11:45:23;;;;;;;18.88;5.57;;;;;;;;;;5083233;28;20052;-75
2022/01/02 11:47:50;;;;;;;18.48;6.13;;;;;;;;;;5074004;28;20097;-77
2022/01/02 11:50:32;;;;;;;12.82;4.85;;;;;;;;;;5074206;28;20058;-78
2022/01/02 11:53:11;;;;;;;24.50;5.70;;;;;;;;;;5108191;28;20049;-79
2022/01/02 11:55:37;;;;;;;16.48;4.78;;;;;;;;;;5087970;28;20495;-76
2022/01/02 11:58:03;;;;;;;17.92;5.30;;;;;;;;;;5110269;28;20046;-79
2022/01/02 12:00:34;;;;;;;17.75;4.68;;;;;;;;;;5090663;28;20048;-80
2022/01/02 12:03:00;;;;;;;17.90;4.40;;;;;;;;;;5075908;28;20039;-79
2022/01/02 12:05:26;;;;;;;22.38;5.28;;;;;;;;;;5111801;27;20044;-89
2022/01/02 12:07:55;;;;;;;23.17;5.05;;;;;;;;;;5093102;28;20040;-77
2022/01/02 12:10:26;;;;;;;14.00;4.32;;;;;;;;;;5087651;28;20052;-78
2022/01/02 12:12:58;;;;;;;23.27;5.05;;;;;;;;;;5083804;28;20067;-80
2022/01/02 12:15:25;;;;;;;21.23;4.90;;;;;;;;;;5087908;28;20083;-81
2022/01/02 12:18:11;;;;;;;25.73;4.68;;;;;;;;;;5089260;28;20040;-81
2022/01/02 12:20:53;;;;;;;17.35;4.38;;;;;;;;;;5087915;28;20618;-83
2022/01/02 12:23:40;;;;;;;19.00;4.57;;;;;;;;;;5089150;28;20445;-80
2022/01/02 12:26:06;;;;;;;22.15;5.40;;;;;;;;;;5066815;28;20106;-79
2022/01/02 12:28:46;;;;;;;22.65;4.85;;;;;;;;;;5085589;28;20039;-79
2022/01/02 12:31:13;;;;;;;23.58;5.25;;;;;;;;;;5089354;28;20559;-78
2022/01/02 12:33:39;;;;;;;18.73;4.28;;;;;;;;;;5088462;28;20066;-77
2022/01/02 12:36:22;;;;;;;23.27;4.28;;;;;;;;;;5081348;28;20044;-78
2022/01/02 12:38:52;;;;;;;25.15;3.55;;;;;;;;;;5082131;28;20489;-78
2022/01/02 12:41:20;;;;;;;19.23;4.30;;;;;;;;;;5087227;28;20044;-77
2022/01/02 12:43:52;;;;;;;19.42;4.03;;;;;;;;;;5087577;28;20040;-77
2022/01/02 12:46:38;;;;;;;23.38;3.72;;;;;;;;;;5084119;28;20399;-80
2022/01/02 12:49:05;;;;;;;21.77;4.45;;;;;;;;;;5086624;28;20117;-77
2022/01/02 12:51:32;;;;;;;17.40;3.33;;;;;;;;;;5090086;28;20044;-84
2022/01/02 12:54:03;;;;;;;22.33;3.55;;;;;;;;;;5089189;28;20395;-78
2022/01/02 12:56:35;;;;;;;16.30;3.63;;;;;;;;;;5086699;28;20127;-77
2022/01/02 12:59:20;;;;;;;15.30;3.30;;;;;;;;;;5091084;28;20040;-77
2022/01/02 13:01:57;;;;;;;18.58;3.75;;;;;;;;;;5087844;28;20035;-77
2022/01/02 13:04:24;;;;;;;13.93;3.40;;;;;;;;;;5089113;28;20375;-78
2022/01/02 13:06:55;;;;;;;15.93;4.47;;;;;;;;;;5086625;28;20415;-78
2022/01/02 13:09:37;;;;;;;15.80;2.60;;;;;;;;;;5091200;28;20101;-77
2022/01/02 13:12:03;;;;;;;16.30;3.28;;;;;;;;;;5079572;28;20139;-77
2022/01/02 13:14:38;;;;;;;20.52;3.05;;;;;;;;;;5080751;28;20445;-77
2022/01/02 13:17:07;;;;;;;13.95;2.72;;;;;;;;;;5079002;28;20032;-77
2022/01/02 13:19:35;;;;;;;18.35;4.13;;;;;;;;;;5096410;28;20043;-77
2022/01/02 13:22:01;;;;;;;18.38;3.95;;;;;;;;;;5072129;28;20044;-81
2022/01/02 13:24:29;;;;;;;18.50;3.67;;;;;;;;;;5081885;28;20047;-77
2022/01/02 13:26:56;;;;;;;12.77;2.45;;;;;;;;;;5062940;28;20051;-85
2022/01/02 13:29:23;;;;;;;15.20;2.53;;;;;;;;;;5072176;28;20048;-81
2022/01/02 13:31:53;;;;;;;15.07;2.80;;;;;;;;;;5057514;28;20051;-78
2022/01/02 13:34:37;;;;;;;20.35;3.17;;;;;;;;;;5061621;28;20032;-77
2022/01/02 13:37:04;;;;;;;;;;;;;;;;;;5081738;28;20048;-77
2022/01/02 13:39:41;;;;;;;18.38;3.13;;;;;;;;;;5071959;28;19928;-82
2022/01/02 13:42:08;;;;;;;18.85;2.58;;;;;;;;;;5105807;28;20067;-78
2022/01/02 13:44:38;;;;;;;15.82;2.97;;;;;;;;;;5039641;28;20040;-77
2022/01/02 13:47:04;;;;;;;17.65;3.20;;;;;;;;;;5073043;28;20052;-77
2022/01/02 13:49:40;;;;;;;13.68;2.65;;;;;;;;;;5079457;28;20032;-77
2022/01/02 13:52:06;;;;;;;18.80;2.90;;;;;;;;;;5077850;28;20047;-77
2022/01/02 13:54:32;;;;;;;13.38;2.95;;;;;;;;;;5075574;28;20032;-77
2022/01/02 13:56:59;;;;;;;14.13;2.20;;;;;;;;;;5063851;28;20123;-77
2022/01/02 13:59:25;;;;;;;12.52;2.08;;;;;;;;;;5096579;28;20052;-77
2022/01/02 14:01:51;;;;;;;11.95;2.17;;;;;;;;;;5074007;28;20050;-77
2022/01/02 14:04:19;;;;;;;16.02;2.67;;;;;;;;;;5080959;28;20375;-78
2022/01/02 14:06:46;;;;;;;11.63;3.03;;;;;;;;;;5082678;28;20093;-77
2022/01/02 14:09:14;;;;;;;14.52;2.60;;;;;;;;;;5094176;28;20036;-78
2022/01/02 14:11:41;;;;;;;13.63;2.35;;;;;;;;;;5090267;28;20194;-77
2022/01/02 14:14:47;;;;;;;13.50;2.70;;;;;;;;;;5108343;28;20042;-77
2022/01/02 14:19:45;;;;;;;12.68;2.30;;;;;;;;;;5090720;28;20084;-77
2022/01/02 14:22:13;;;;;;;12.32;2.75;;;;;;;;;;5107537;28;20061;-78
2022/01/02 14:24:39;;;;;;;15.05;3.03;;;;;;;;;;5088534;28;20044;-77
2022/01/02 14:27:07;;;;;;;14.52;2.10;;;;;;;;;;5110326;28;20534;-77
2022/01/02 14:29:33;;;;;;;21.33;3.10;;;;;;;;;;5108881;28;20044;-77
2022/01/02 14:31:59;;;;;;;10.98;1.58;;;;;;;;;;5092237;28;20067;-77
2022/01/02 14:34:27;;;;;;;12.30;2.25;;;;;;;;;;5090408;28;20051;-77
2022/01/02 14:36:53;;;;;;;14.07;2.42;;;;;;;;;;5090278;28;20067;-77
2022/01/02 14:39:19;;;;;;;11.35;1.83;;;;;;;;;;5073750;28;20773;-77
2022/01/02 14:41:45;;;;;;;18.08;2.10;;;;;;;;;;5089991;28;20040;-77
2022/01/02 14:44:13;;;;;;;10.85;2.00;;;;;;;;;;5094354;28;20130;-77
2022/01/02 14:46:39;;;;;;;15.93;2.78;;;;;;;;;;5095242;28;20055;-78
2022/01/02 14:49:05;;;;;;;9.07;2.08;;;;;;;;;;5078046;28;20054;-78
2022/01/02 14:51:31;;;;;;;11.13;2.90;;;;;;;;;;5111836;28;20508;-78
2022/01/02 14:53:57;;;;;;;14.27;3.10;;;;;;;;;;5078073;28;20075;-78
2022/01/02 14:56:23;;;;;;;16.08;2.38;;;;;;;;;;5093477;28;20093;-79
2022/01/02 14:58:50;;;;;;;15.02;3.00;;;;;;;;;;5093121;28;20074;-77
2022/01/02 15:01:18;;;;;;;12.88;2.25;;;;;;;;;;5092447;28;20085;-77
2022/01/02 15:03:44;;;;;;;18.20;2.78;;;;;;;;;;5094397;28;20058;-84
2022/01/02 15:06:10;;;;;;;17.23;2.53;;;;;;;;;;5094401;28;20048;-76
2022/01/02 15:08:37;;;;;;;17.10;2.70;;;;;;;;;;5093900;28;20473;-77
2022/01/02 15:11:03;;;;;;;17.42;2.60;;;;;;;;;;5089802;28;20332;-77
2022/01/02 15:13:29;;;;;;;19.88;2.60;;;;;;;;;;5091827;28;20051;-76
2022/01/02 15:15:55;;;;;;;14.57;2.60;;;;;;;;;;5087397;28;20051;-76
2022/01/02 15:18:22;;;;;;;15.32;3.08;;;;;;;;;;5090977;28;20040;-76
2022/01/02 15:20:48;;;;;;;17.13;3.08;;;;;;;;;;5089954;28;20125;-76
2022/01/02 15:23:14;;;;;;;17.70;2.67;;;;;;;;;;5090893;28;20040;-76
2022/01/02 15:25:40;;;;;;;19.67;3.15;;;;;;;;;;5090156;28;20036;-77
2022/01/02 15:28:06;;;;;;;17.20;3.70;;;;;;;;;;5087691;28;20059;-76
2022/01/02 15:30:32;;;;;;;15.40;2.75;;;;;;;;;;5055843;28;20054;-76
2022/01/02 15:32:58;;;;;;;15.73;3.28;;;;;;;;;;5089896;28;20135;-77